Time;durP1;ratioP1;P1;durP2;ratioP2;P2;SDS_P1;SDS_P2;PMS_P1;PMS_P2;Temp;Humidity;BMP_temperature;BMP_pressure;BME280_temperature;BME280_humidity;BME280_pressure;Samples;Min_cycle;Max_cycle;Signal;HPM_P1;HPM_P2
2022/06/26 00:00:47;;;;;;;;;;;14.10;99.90;;;;;;5124044;27;20266;-59
2022/06/26 00:03:27;;;;;;;;;;;14.10;99.90;;;;;;5118723;27;19912;-59
2022/06/26 00:06:07;;;;;;;;;;;14.00;99.90;;;;;;5123451;27;19914;-59
2022/06/26 00:08:46;;;;;;;;;;;14.00;99.90;;;;;;5122368;27;19922;-57
2022/06/26 00:11:26;;;;;;;;;;;14.00;99.90;;;;;;5082689;28;20309;-58
2022/06/26 00:14:06;;;;;;;;;;;14.10;99.90;;;;;;5111173;27;20373;-58
2022/06/26 00:16:46;;;;;;;;;;;14.10;99.90;;;;;;5123330;27;19916;-59
2022/06/26 00:19:26;;;;;;;;;;;14.00;99.90;;;;;;5124056;27;19916;-56
2022/06/26 00:22:06;;;;;;;;;;;14.10;99.90;;;;;;5103761;27;19981;-58
2022/06/26 00:24:47;;;;;;;;;;;14.00;99.90;;;;;;5124401;27;19911;-56
2022/06/26 00:27:27;;;;;;;;;;;14.10;99.90;;;;;;5123761;27;19915;-58
2022/06/26 00:30:08;;;;;;;;;;;14.10;99.90;;;;;;5123970;27;19916;-58
2022/06/26 00:32:48;;;;;;;;;;;14.10;99.90;;;;;;5103791;27;20258;-58
2022/06/26 00:35:28;;;;;;;;;;;14.00;99.90;;;;;;5124100;27;19912;-58
2022/06/26 00:38:08;;;;;;;;;;;13.90;99.90;;;;;;5102875;27;19962;-55
2022/06/26 00:40:49;;;;;;;;;;;13.90;99.90;;;;;;5103456;27;20319;-56
2022/06/26 00:43:29;;;;;;;;;;;13.90;99.90;;;;;;5118107;27;20378;-58
2022/06/26 00:46:09;;;;;;;;;;;13.80;99.90;;;;;;5158331;27;19912;-59
2022/06/26 00:48:48;;;;;;;;;;;13.80;99.90;;;;;;5110255;27;19912;-59
2022/06/26 00:51:28;;;;;;;;;;;13.70;99.90;;;;;;5122848;27;19920;-55
2022/06/26 00:54:08;;;;;;;;;;;13.80;99.90;;;;;;5114497;27;19918;-59
2022/06/26 00:56:48;;;;;;;;;;;13.80;99.90;;;;;;5123186;27;19912;-58
2022/06/26 00:59:28;;;;;;;;;;;13.70;99.90;;;;;;5119452;27;19916;-57
2022/06/26 01:02:09;;;;;;;;;;;13.70;99.90;;;;;;5112898;27;19920;-59
2022/06/26 01:04:49;;;;;;;;;;;13.60;99.90;;;;;;5105257;27;20495;-59
2022/06/26 01:07:29;;;;;;;;;;;13.50;99.90;;;;;;5123241;27;20409;-58
2022/06/26 01:10:09;;;;;;;;;;;13.60;99.90;;;;;;5122263;27;19935;-58
2022/06/26 01:12:50;;;;;;;;;;;13.60;99.90;;;;;;5124006;27;19912;-58
2022/06/26 01:15:30;;;;;;;;;;;13.50;99.90;;;;;;5124381;27;20377;-57
2022/06/26 01:18:12;;;;;;;;;;;13.50;99.90;;;;;;5124395;27;19919;-58
2022/06/26 01:20:54;;;;;;;;;;;13.50;99.90;;;;;;5124478;27;19912;-57
2022/06/26 01:23:36;;;;;;;;;;;13.50;99.90;;;;;;5124727;27;20377;-60
2022/06/26 01:26:16;;;;;;;;;;;13.40;99.90;;;;;;5123907;27;19911;-58
2022/06/26 01:28:57;;;;;;;;;;;13.40;99.90;;;;;;5103959;27;19916;-56
2022/06/26 01:31:37;;;;;;;;;;;13.50;99.90;;;;;;5124429;27;20307;-58
2022/06/26 01:34:17;;;;;;;;;;;13.40;99.90;;;;;;5124649;27;19912;-58
2022/06/26 01:36:57;;;;;;;;;;;13.40;99.90;;;;;;5144593;27;19911;-59
2022/06/26 01:39:36;;;;;;;;;;;13.40;99.90;;;;;;5124433;27;19922;-60
2022/06/26 01:42:18;;;;;;;;;;;13.40;99.90;;;;;;5124858;27;19912;-58
2022/06/26 01:44:59;;;;;;;;;;;13.40;99.90;;;;;;5162154;22;19927;-55
2022/06/26 01:47:39;;;;;;;;;;;13.30;99.90;;;;;;5114952;27;19916;-54
2022/06/26 01:50:19;;;;;;;;;;;13.30;99.90;;;;;;5119017;27;20394;-54
2022/06/26 01:53:00;;;;;;;;;;;13.30;99.90;;;;;;5108942;27;20320;-54
2022/06/26 01:55:41;;;;;;;;;;;13.20;99.90;;;;;;5102618;27;19916;-55
2022/06/26 01:58:23;;;;;;;;;;;13.10;99.90;;;;;;5096103;27;19912;-53
2022/06/26 02:01:05;;;;;;;;;;;13.10;99.90;;;;;;5122984;27;19912;-54
2022/06/26 02:03:45;;;;;;;;;;;13.10;99.90;;;;;;5121672;27;19918;-54
2022/06/26 02:06:24;;;;;;;;;;;13.00;99.90;;;;;;5088245;27;20377;-54
2022/06/26 02:13:35;;;;;;;;;;;13.00;99.90;;;;;;5123226;27;20312;-54
2022/06/26 02:15:08;;;;;;;;;;;13.00;99.90;;;;;;5103741;27;19962;-54
2022/06/26 02:17:48;;;;;;;;;;;13.00;99.90;;;;;;5121148;27;19916;-53
2022/06/26 02:20:28;;;;;;;;;;;13.00;99.90;;;;;;5101951;27;19912;-55
2022/06/26 02:23:09;;;;;;;;;;;12.90;99.90;;;;;;5106998;27;19919;-54
2022/06/26 02:25:50;;;;;;;;;;;12.90;99.90;;;;;;5091992;27;20142;-54
2022/06/26 02:28:29;;;;;;;;;;;12.90;99.90;;;;;;5101540;27;19926;-54
2022/06/26 02:31:12;;;;;;;;;;;12.90;99.90;;;;;;5123968;27;19911;-54
2022/06/26 02:33:52;;;;;;;;;;;12.90;99.90;;;;;;5103380;27;19958;-55
2022/06/26 02:36:32;;;;;;;;;;;12.80;99.90;;;;;;5123457;27;19916;-54
2022/06/26 02:39:12;;;;;;;;;;;12.80;99.90;;;;;;5117446;27;19956;-54
2022/06/26 02:41:52;;;;;;;;;;;12.80;99.90;;;;;;5118976;27;20361;-54
2022/06/26 02:44:32;;;;;;;;;;;12.80;99.90;;;;;;5096897;27;19919;-54
2022/06/26 02:47:13;;;;;;;;;;;12.80;99.90;;;;;;5120528;27;19923;-54
2022/06/26 02:49:53;;;;;;;;;;;12.70;99.90;;;;;;5096396;27;20328;-55
2022/06/26 02:52:36;;;;;;;;;;;12.60;99.90;;;;;;5122063;27;19926;-54
2022/06/26 02:55:16;;;;;;;;;;;12.60;99.90;;;;;;5086085;27;19916;-54
2022/06/26 02:57:57;;;;;;;;;;;12.50;99.90;;;;;;5121632;27;19926;-54
2022/06/26 03:00:38;;;;;;;;;;;12.50;99.90;;;;;;5123494;27;19912;-54
2022/06/26 03:03:18;;;;;;;;;;;12.40;99.90;;;;;;5124587;27;19912;-55
2022/06/26 03:06:00;;;;;;;;;;;12.50;99.90;;;;;;5103386;27;20332;-54
2022/06/26 03:08:40;;;;;;;;;;;12.40;99.90;;;;;;5100255;27;20273;-54
2022/06/26 03:11:19;;;;;;;;;;;12.40;99.90;;;;;;5104303;27;19913;-55
2022/06/26 03:14:01;;;;;;;;;;;12.50;99.90;;;;;;5123199;27;19916;-55
2022/06/26 03:16:41;;;;;;;;;;;12.60;99.90;;;;;;5120809;27;20342;-55
2022/06/26 03:19:20;;;;;;;;;;;12.60;99.90;;;;;;5103422;27;19926;-54
2022/06/26 03:22:00;;;;;;;;;;;12.60;99.90;;;;;;5101661;27;20214;-53
2022/06/26 03:24:40;;;;;;;;;;;12.60;99.90;;;;;;5123677;27;19916;-54
2022/06/26 03:27:20;;;;;;;;;;;12.60;99.90;;;;;;5102882;27;19912;-54
2022/06/26 03:30:00;;;;;;;;;;;12.60;99.90;;;;;;5117919;27;20290;-54
2022/06/26 03:32:40;;;;;;;;;;;12.70;99.90;;;;;;5120781;27;19912;-54
2022/06/26 03:35:23;;;;;;;;;;;12.70;99.90;;;;;;5106250;27;20292;-54
2022/06/26 03:38:02;;;;;;;;;;;12.80;99.90;;;;;;5122059;27;19918;-54
2022/06/26 03:40:44;;;;;;;;;;;12.80;99.90;;;;;;5103101;27;19912;-54
2022/06/26 03:43:25;;;;;;;;;;;12.90;99.90;;;;;;5103651;27;20198;-54
2022/06/26 03:46:05;;;;;;;;;;;13.00;99.90;;;;;;5102019;27;19916;-54
2022/06/26 03:48:45;;;;;;;;;;;13.10;99.90;;;;;;5101664;27;19916;-56
2022/06/26 03:51:25;;;;;;;;;;;13.20;99.90;;;;;;5121908;27;19919;-55
2022/06/26 03:54:05;;;;;;;;;;;13.30;99.90;;;;;;5103168;27;19912;-54
2022/06/26 03:56:45;;;;;;;;;;;13.30;99.90;;;;;;5102143;27;19912;-54
2022/06/26 03:59:24;;;;;;;;;;;13.30;99.90;;;;;;5101990;27;19912;-54
2022/06/26 04:02:04;;;;;;;;;;;13.40;99.90;;;;;;5124209;27;19911;-54
2022/06/26 04:04:45;;;;;;;;;;;13.60;99.90;;;;;;5111503;27;19919;-54
2022/06/26 04:07:25;;;;;;;;;;;13.70;99.90;;;;;;5119409;27;19916;-53
2022/06/26 04:10:23;;;;;;;;;;;13.80;99.90;;;;;;5123077;27;19912;-54
2022/06/26 04:13:04;;;;;;;;;;;13.90;99.90;;;;;;5121458;27;19959;-54
2022/06/26 04:15:49;;;;;;;;;;;14.20;99.90;;;;;;5121325;27;19916;-53
2022/06/26 04:18:29;;;;;;;;;;;15.20;99.90;;;;;;5123292;27;19912;-53
2022/06/26 04:21:10;;;;;;;;;;;16.30;99.90;;;;;;5123616;27;19934;-54
2022/06/26 04:23:52;;;;;;;;;;;17.40;99.90;;;;;;5123530;27;19920;-53
2022/06/26 04:26:33;;;;;;;;;;;18.40;99.90;;;;;;5099958;27;19912;-54
2022/06/26 04:29:13;;;;;;;;;;;19.70;99.90;;;;;;5104522;27;19916;-54
2022/06/26 04:31:53;;;;;;;;;;;20.70;99.90;;;;;;5135349;27;19912;-54
2022/06/26 04:34:36;;;;;;;;;;;21.60;99.90;;;;;;5111074;27;20439;-54
2022/06/26 04:37:19;;;;;;;;;;;22.30;99.90;;;;;;5121769;27;19916;-54
2022/06/26 04:39:58;;;;;;;;;;;22.70;99.90;;;;;;5123864;27;19920;-53
2022/06/26 04:42:41;;;;;;;;;;;22.70;99.90;;;;;;5123818;27;19912;-54
2022/06/26 04:45:22;;;;;;;;;;;23.00;99.90;;;;;;5122213;27;19912;-53
2022/06/26 04:48:03;;;;;;;;;;;23.50;99.90;;;;;;5123332;27;19912;-53
2022/06/26 04:50:44;;;;;;;;;;;23.50;99.90;;;;;;5103290;27;19926;-53
2022/06/26 04:53:30;;;;;;;;;;;23.60;99.90;;;;;;5123894;27;20180;-54
2022/06/26 04:56:10;;;;;;;;;;;23.90;99.90;;;;;;5102505;27;20348;-54
2022/06/26 04:59:00;;;;;;;;;;;24.00;99.90;;;;;;5124247;27;20387;-54
2022/06/26 05:01:39;;;;;;;;;;;23.90;99.90;;;;;;5123767;27;19918;-54
2022/06/26 05:04:29;;;;;;;;;;;24.30;99.90;;;;;;5114798;27;19912;-53
2022/06/26 05:07:30;;;;;;;;;;;24.60;99.90;;;;;;5123348;27;20373;-53
2022/06/26 05:10:10;;;;;;;;;;;24.80;99.90;;;;;;5124139;27;19912;-53
2022/06/26 05:13:02;;;;;;;;;;;25.10;99.90;;;;;;5124459;27;19912;-54
2022/06/26 05:16:03;;;;;;;;;;;25.20;99.90;;;;;;5124305;27;19912;-53
2022/06/26 05:18:42;;;;;;;;;;;25.40;99.90;;;;;;5123575;27;19916;-53
2022/06/26 05:21:22;;;;;;;;;;;25.20;99.90;;;;;;5103802;27;19961;-53
2022/06/26 05:24:02;;;;;;;;;;;25.20;99.90;;;;;;5098685;27;20400;-53
2022/06/26 05:26:42;;;;;;;;;;;25.20;99.90;;;;;;5102652;27;20396;-54
2022/06/26 05:29:22;;;;;;;;;;;25.30;99.90;;;;;;5123991;27;19915;-53
2022/06/26 05:32:04;;;;;;;;;;;25.50;99.90;;;;;;5104197;27;19919;-53
2022/06/26 05:34:45;;;;;;;;;;;25.70;99.90;;;;;;5112733;27;19912;-54
2022/06/26 05:37:26;;;;;;;;;;;25.70;99.90;;;;;;5122780;27;19915;-54
2022/06/26 05:40:07;;;;;;;;;;;25.20;99.90;;;;;;5103489;27;20173;-53
2022/06/26 05:42:51;;;;;;;;;;;24.70;99.90;;;;;;5124481;27;19916;-54
2022/06/26 05:45:32;;;;;;;;;;;23.70;99.90;;;;;;5102852;27;19920;-54
2022/06/26 05:48:31;;;;;;;;;;;22.90;99.90;;;;;;5124933;27;19912;-54
2022/06/26 05:51:24;;;;;;;;;;;22.40;99.90;;;;;;5083737;28;20331;-54
2022/06/26 05:54:19;;;;;;;;;;;22.00;99.90;;;;;;5117181;27;19946;-54
2022/06/26 05:57:26;;;;;;;;;;;21.90;99.90;;;;;;5102934;27;19916;-54
2022/06/26 06:00:19;;;;;;;;;;;22.00;99.90;;;;;;5124889;27;19916;-54
2022/06/26 06:02:59;;;;;;;;;;;22.10;99.90;;;;;;5124731;27;20210;-53
2022/06/26 06:05:39;;;;;;;;;;;22.10;99.90;;;;;;5124105;27;19911;-54
2022/06/26 06:08:19;;;;;;;;;;;22.10;99.90;;;;;;5123480;27;19912;-54
2022/06/26 06:10:58;;;;;;;;;;;22.20;99.90;;;;;;5124501;27;19933;-53
2022/06/26 06:13:38;;;;;;;;;;;22.30;99.90;;;;;;5101508;27;19912;-54
2022/06/26 06:16:18;;;;;;;;;;;22.40;99.90;;;;;;5123505;27;19912;-54
2022/06/26 06:18:58;;;;;;;;;;;22.50;99.90;;;;;;5123830;27;19919;-54
2022/06/26 06:21:41;;;;;;;;;;;22.60;99.90;;;;;;5124219;27;19915;-54
2022/06/26 06:24:21;;;;;;;;;;;22.60;99.90;;;;;;5124355;27;19912;-54
2022/06/26 06:27:01;;;;;;;;;;;22.60;99.90;;;;;;5122137;27;20345;-54
2022/06/26 06:29:42;;;;;;;;;;;22.80;99.90;;;;;;5103054;27;19946;-54
2022/06/26 06:32:23;;;;;;;;;;;22.90;99.90;;;;;;5124935;27;19916;-54
2022/06/26 06:35:04;;;;;;;;;;;23.00;99.90;;;;;;5123942;27;19912;-54
2022/06/26 06:37:49;;;;;;;;;;;23.10;99.90;;;;;;5123429;27;20289;-54
2022/06/26 06:40:29;;;;;;;;;;;23.10;99.90;;;;;;5123129;27;19939;-54
2022/06/26 06:43:11;;;;;;;;;;;23.10;99.90;;;;;;5123225;27;19912;-55
2022/06/26 06:46:23;;;;;;;;;;;23.30;99.90;;;;;;5123412;27;19912;-54
2022/06/26 06:49:12;;;;;;;;;;;23.60;99.90;;;;;;5124454;27;19916;-54
2022/06/26 06:52:07;;;;;;;;;;;23.60;99.90;;;;;;5124685;27;19912;-54
2022/06/26 06:54:48;;;;;;;;;;;23.50;99.90;;;;;;5112619;27;20313;-53
2022/06/26 06:57:27;;;;;;;;;;;23.60;99.90;;;;;;5123854;27;20378;-55
2022/06/26 07:00:08;;;;;;;;;;;23.80;99.90;;;;;;5105722;27;19920;-54
2022/06/26 07:02:49;;;;;;;;;;;23.80;99.90;;;;;;5121882;27;19912;-54
2022/06/26 07:05:29;;;;;;;;;;;24.00;99.90;;;;;;5113298;27;20362;-55
2022/06/26 07:08:08;;;;;;;;;;;24.10;99.90;;;;;;5123729;27;19915;-54
2022/06/26 07:10:48;;;;;;;;;;;24.30;99.90;;;;;;5117388;27;19916;-54
2022/06/26 07:13:31;;;;;;;;;;;24.40;99.90;;;;;;5124492;27;20203;-54
2022/06/26 07:16:11;;;;;;;;;;;24.50;99.90;;;;;;5103128;27;19912;-54
2022/06/26 07:18:51;;;;;;;;;;;24.60;99.90;;;;;;5144487;27;19923;-54
2022/06/26 07:21:32;;;;;;;;;;;24.50;99.90;;;;;;5124024;27;19912;-54
2022/06/26 07:24:16;;;;;;;;;;;24.60;99.90;;;;;;5117240;27;20390;-53
2022/06/26 07:27:17;;;;;;;;;;;24.70;99.90;;;;;;5085949;28;19916;-54
2022/06/26 07:29:59;;;;;;;;;;;24.80;99.90;;;;;;5103575;27;19916;-54
2022/06/26 07:32:39;;;;;;;;;;;24.90;99.90;;;;;;5134910;27;19926;-54
2022/06/26 07:35:20;;;;;;;;;;;24.90;99.90;;;;;;5102839;27;20331;-54
2022/06/26 07:38:00;;;;;;;;;;;25.00;99.90;;;;;;5117061;27;20373;-54
2022/06/26 07:40:40;;;;;;;;;;;25.00;99.90;;;;;;5101884;27;19953;-54
2022/06/26 07:43:20;;;;;;;;;;;25.00;99.90;;;;;;5100495;27;19930;-54
2022/06/26 07:46:01;;;;;;;;;;;25.10;99.90;;;;;;5103067;27;20415;-57
2022/06/26 07:48:41;;;;;;;;;;;25.20;99.90;;;;;;5103405;27;19926;-56
2022/06/26 07:51:22;;;;;;;;;;;25.30;99.90;;;;;;5124087;27;19919;-57
2022/06/26 07:54:02;;;;;;;;;;;25.40;99.90;;;;;;5116505;27;20130;-54
2022/06/26 07:56:42;;;;;;;;;;;25.50;99.90;;;;;;5104751;27;20282;-56
2022/06/26 07:59:22;;;;;;;;;;;25.60;99.90;;;;;;5121018;27;19915;-55
2022/06/26 08:02:02;;;;;;;;;;;25.70;99.90;;;;;;5122869;27;19912;-54
2022/06/26 08:04:42;;;;;;;;;;;25.80;99.90;;;;;;5101465;27;20266;-55
2022/06/26 08:07:22;;;;;;;;;;;26.00;99.90;;;;;;5092932;27;19916;-57
2022/06/26 08:10:01;;;;;;;;;;;25.80;99.90;;;;;;5122716;27;19921;-56
2022/06/26 08:12:41;;;;;;;;;;;25.70;99.90;;;;;;5107112;27;19916;-57
2022/06/26 08:15:21;;;;;;;;;;;25.60;99.90;;;;;;5100401;27;20075;-56
2022/06/26 08:18:01;;;;;;;;;;;25.50;99.90;;;;;;5123613;27;19912;-55
2022/06/26 08:20:41;;;;;;;;;;;25.50;99.90;;;;;;5123726;27;19912;-55
2022/06/26 08:23:21;;;;;;;;;;;25.60;99.90;;;;;;5121910;27;19912;-56
2022/06/26 08:26:00;;;;;;;;;;;25.80;99.90;;;;;;5121582;27;19912;-56
2022/06/26 08:28:40;;;;;;;;;;;25.90;99.90;;;;;;5120024;27;20376;-57
2022/06/26 08:31:20;;;;;;;;;;;26.10;99.90;;;;;;5105732;27;19912;-55
2022/06/26 08:34:00;;;;;;;;;;;26.00;99.90;;;;;;5103435;27;19916;-56
2022/06/26 08:36:40;;;;;;;;;;;26.20;99.90;;;;;;5121658;27;19915;-57
2022/06/26 08:39:19;;;;;;;;;;;26.10;99.90;;;;;;5103355;27;20208;-54
2022/06/26 08:41:59;;;;;;;;;;;26.00;99.90;;;;;;5122743;27;19912;-55
2022/06/26 08:44:42;;;;;;;;;;;26.20;99.90;;;;;;5112637;27;20316;-57
2022/06/26 08:47:24;;;;;;;;;;;26.50;99.90;;;;;;5102039;27;19927;-56
2022/06/26 08:50:04;;;;;;;;;;;26.50;99.90;;;;;;5103041;27;19920;-56
2022/06/26 08:52:43;;;;;;;;;;;26.80;99.90;;;;;;5122588;27;19920;-57
2022/06/26 08:55:23;;;;;;;;;;;27.00;99.90;;;;;;5086090;27;20490;-55
2022/06/26 08:58:03;;;;;;;;;;;27.10;99.90;;;;;;5123194;27;20357;-56
2022/06/26 09:00:46;;;;;;;;;;;27.20;98.70;;;;;;5102909;27;19926;-55
2022/06/26 09:03:26;;;;;;;;;;;27.40;99.80;;;;;;5122896;27;19912;-55
2022/06/26 09:06:06;;;;;;;;;;;27.40;98.40;;;;;;5148999;27;19911;-57
2022/06/26 09:08:48;;;;;;;;;;;27.20;99.40;;;;;;5118402;27;19918;-54
2022/06/26 09:11:37;;;;;;;;;;;27.40;97.20;;;;;;5122653;27;19915;-57
2022/06/26 09:14:18;;;;;;;;;;;27.70;95.30;;;;;;5102625;27;20327;-54
2022/06/26 09:16:58;;;;;;;;;;;27.70;95.40;;;;;;5118884;27;20389;-55
2022/06/26 09:19:41;;;;;;;;;;;27.40;95.90;;;;;;5123214;27;19918;-54
2022/06/26 09:22:22;;;;;;;;;;;27.50;95.30;;;;;;5102329;27;19926;-55
2022/06/26 09:25:03;;;;;;;;;;;27.80;96.90;;;;;;5109059;27;19912;-55
2022/06/26 09:27:44;;;;;;;;;;;28.10;95.00;;;;;;5144904;27;19911;-57
2022/06/26 09:30:26;;;;;;;;;;;28.40;90.70;;;;;;5103050;27;19912;-54
2022/06/26 09:33:06;;;;;;;;;;;28.60;88.70;;;;;;5083396;28;19912;-56
2022/06/26 09:35:46;;;;;;;;;;;28.60;86.00;;;;;;5112740;27;19915;-55
2022/06/26 09:38:27;;;;;;;;;;;28.70;88.10;;;;;;5098603;27;19923;-56
2022/06/26 09:41:08;;;;;;;;;;;28.60;79.90;;;;;;5102174;27;19924;-55
2022/06/26 09:43:49;;;;;;;;;;;28.00;81.90;;;;;;5119544;27;19912;-54
2022/06/26 09:46:30;;;;;;;;;;;27.50;83.60;;;;;;5101010;27;20415;-55
2022/06/26 09:49:11;;;;;;;;;;;27.80;83.70;;;;;;5103361;27;19915;-56
2022/06/26 09:51:52;;;;;;;;;;;28.40;83.50;;;;;;5083014;28;19920;-56
2022/06/26 09:54:31;;;;;;;;;;;28.90;73.00;;;;;;5124471;27;19912;-55
2022/06/26 09:57:11;;;;;;;;;;;28.90;74.50;;;;;;5098068;27;19930;-56
2022/06/26 09:59:51;;;;;;;;;;;28.80;71.60;;;;;;5122972;27;19931;-55
2022/06/26 10:08:41;;;;;;;;;;;29.30;67.00;;;;;;5104258;27;19912;-55
2022/06/26 10:11:23;;;;;;;;;;;29.60;63.60;;;;;;5124507;27;19911;-56
2022/06/26 10:14:05;;;;;;;;;;;29.30;63.90;;;;;;5098902;27;19912;-56
2022/06/26 10:16:59;;;;;;;;;;;29.20;65.00;;;;;;5124288;27;20315;-55
2022/06/26 10:19:42;;;;;;;;;;;29.00;62.90;;;;;;5084458;28;19912;-55
2022/06/26 10:22:23;;;;;;;;;;;29.00;65.90;;;;;;5084830;28;19913;-55
2022/06/26 10:25:05;;;;;;;;;;;28.80;61.30;;;;;;5105310;27;19912;-57
2022/06/26 10:27:45;;;;;;;;;;;28.70;64.10;;;;;;5117595;27;20364;-54
2022/06/26 10:30:25;;;;;;;;;;;28.70;65.10;;;;;;5103318;27;19926;-55
2022/06/26 10:33:10;;;;;;;;;;;28.60;61.20;;;;;;5103501;27;19945;-55
2022/06/26 10:35:54;;;;;;;;;;;28.40;60.40;;;;;;5112862;27;20273;-54
2022/06/26 10:38:33;;;;;;;;;;;28.30;62.50;;;;;;5125053;27;20244;-57
2022/06/26 10:44:14;;;;;;;;;;;28.30;59.40;;;;;;5120341;27;19916;-55
2022/06/26 10:46:58;;;;;;;;;;;28.50;59.50;;;;;;5099900;27;20256;-55
2022/06/26 10:49:47;;;;;;;;;;;28.70;62.40;;;;;;5120221;27;19915;-57
2022/06/26 10:52:29;;;;;;;;;;;28.90;59.30;;;;;;5122582;27;20294;-55
2022/06/26 10:55:09;;;;;;;;;;;28.80;61.60;;;;;;5141982;27;19911;-55
2022/06/26 10:57:50;;;;;;;;;;;28.90;58.80;;;;;;5122911;27;20266;-54
2022/06/26 11:00:31;;;;;;;;;;;29.10;59.70;;;;;;5110162;27;20304;-55
2022/06/26 11:03:14;;;;;;;;;;;29.30;57.60;;;;;;5093867;27;19923;-54
2022/06/26 11:06:00;;;;;;;;;;;29.30;56.00;;;;;;5121962;27;19919;-55
2022/06/26 11:08:43;;;;;;;;;;;29.20;55.70;;;;;;5119680;27;20376;-56
2022/06/26 11:11:25;;;;;;;;;;;29.30;58.20;;;;;;5083643;27;19938;-56
2022/06/26 11:14:07;;;;;;;;;;;29.30;57.30;;;;;;5101766;27;20568;-55
2022/06/26 11:16:47;;;;;;;;;;;29.20;53.70;;;;;;5122014;27;19911;-56
2022/06/26 11:19:28;;;;;;;;;;;29.20;53.60;;;;;;5123232;27;19922;-55
2022/06/26 11:22:09;;;;;;;;;;;29.60;53.20;;;;;;5119969;27;19916;-58
2022/06/26 11:24:50;;;;;;;;;;;29.90;53.70;;;;;;5141069;27;19944;-58
2022/06/26 11:27:30;;;;;;;;;;;29.90;54.60;;;;;;5118604;27;20321;-54
2022/06/26 11:30:10;;;;;;;;;;;29.80;54.40;;;;;;5099053;27;19919;-55
2022/06/26 11:32:51;;;;;;;;;;;29.70;54.90;;;;;;5119293;27;19946;-56
2022/06/26 11:35:31;;;;;;;;;;;29.60;54.40;;;;;;5063382;27;20333;-54
2022/06/26 11:38:12;;;;;;;;;;;30.00;56.70;;;;;;5094864;27;19926;-54
2022/06/26 11:40:52;;;;;;;;;;;30.60;54.50;;;;;;5100892;27;19946;-56
2022/06/26 11:43:32;;;;;;;;;;;31.00;53.30;;;;;;5116381;27;19912;-55
2022/06/26 11:46:12;;;;;;;;;;;31.30;49.70;;;;;;5122905;27;20292;-55
2022/06/26 11:48:52;;;;;;;;;;;31.40;52.00;;;;;;5122575;27;19924;-55
2022/06/26 11:51:33;;;;;;;;;;;31.60;51.30;;;;;;5123666;27;19915;-54
2022/06/26 11:54:24;;;;;;;;;;;31.70;52.80;;;;;;5117803;27;20316;-56
2022/06/26 11:57:06;;;;;;;;;;;31.80;50.60;;;;;;5123471;27;19916;-58
2022/06/26 11:59:47;;;;;;;;;;;31.90;47.70;;;;;;5123879;27;19911;-57
2022/06/26 12:02:27;;;;;;;;;;;31.80;46.70;;;;;;5125296;27;20180;-55
2022/06/26 12:05:07;;;;;;;;;;;31.80;48.00;;;;;;5103438;27;19912;-56
2022/06/26 12:07:49;;;;;;;;;;;31.80;45.80;;;;;;5123126;27;19919;-54
2022/06/26 12:10:31;;;;;;;;;;;31.70;49.10;;;;;;5124399;27;20373;-55
2022/06/26 12:13:20;;;;;;;;;;;31.70;46.90;;;;;;5124663;27;19916;-54
2022/06/26 12:16:04;;;;;;;;;;;31.60;45.60;;;;;;5103395;27;19927;-56
2022/06/26 12:18:45;;;;;;;;;;;31.30;50.00;;;;;;5103511;27;19916;-58
2022/06/26 12:21:25;;;;;;;;;;;31.10;48.70;;;;;;5124195;27;19912;-57
2022/06/26 12:24:11;;;;;;;;;;;31.20;46.10;;;;;;5077303;28;19917;-55
2022/06/26 12:26:51;;;;;;;;;;;31.10;45.50;;;;;;5103069;27;19953;-57
2022/06/26 12:29:34;;;;;;;;;;;31.30;45.50;;;;;;5103802;27;19954;-56
2022/06/26 12:32:15;;;;;;;;;;;31.60;44.60;;;;;;5124319;27;19915;-56
2022/06/26 12:34:55;;;;;;;;;;;31.40;44.40;;;;;;5111072;27;19923;-57
2022/06/26 12:37:36;;;;;;;;;;;31.40;45.00;;;;;;5123091;27;19919;-56
2022/06/26 12:40:16;;;;;;;;;;;31.50;44.80;;;;;;5103811;27;19916;-56
2022/06/26 12:42:56;;;;;;;;;;;31.50;45.20;;;;;;5145456;27;20452;-54
2022/06/26 12:45:36;;;;;;;;;;;31.20;43.00;;;;;;5124083;27;19911;-56
2022/06/26 12:48:27;;;;;;;;;;;31.00;44.00;;;;;;5124172;27;19912;-56
2022/06/26 12:51:07;;;;;;;;;;;31.00;43.30;;;;;;5124291;27;19919;-57
2022/06/26 12:53:47;;;;;;;;;;;30.90;45.00;;;;;;5100731;27;19950;-56
2022/06/26 12:56:27;;;;;;;;;;;30.80;44.90;;;;;;5123710;27;19915;-57
2022/06/26 12:59:08;;;;;;;;;;;31.10;47.10;;;;;;5103258;27;19931;-57
2022/06/26 13:01:48;;;;;;;;;;;31.40;44.00;;;;;;5123985;27;19915;-55
2022/06/26 13:04:28;;;;;;;;;;;31.70;45.90;;;;;;5115235;27;19916;-55
2022/06/26 13:07:08;;;;;;;;;;;31.90;45.40;;;;;;5101984;27;20419;-55
2022/06/26 13:09:48;;;;;;;;;;;32.00;44.40;;;;;;5083291;28;19917;-58
2022/06/26 13:12:27;;;;;;;;;;;32.10;42.00;;;;;;5124636;27;19911;-56
2022/06/26 13:15:08;;;;;;;;;;;32.00;42.10;;;;;;5124345;27;19911;-55
2022/06/26 13:17:49;;;;;;;;;;;32.10;43.40;;;;;;5123057;27;20368;-54
2022/06/26 13:20:29;;;;;;;;;;;32.20;43.40;;;;;;5103624;27;19930;-57
2022/06/26 13:23:09;;;;;;;;;;;32.20;40.70;;;;;;5124403;27;19916;-57
2022/06/26 13:25:48;;;;;;;;;;;31.80;41.50;;;;;;5123730;27;19926;-57
2022/06/26 13:28:28;;;;;;;;;;;31.60;42.10;;;;;;5124512;27;19911;-57
2022/06/26 13:31:08;;;;;;;;;;;31.70;41.30;;;;;;5104095;27;19926;-54
2022/06/26 13:33:48;;;;;;;;;;;31.60;41.10;;;;;;5120968;27;19912;-55
2022/06/26 13:36:28;;;;;;;;;;;31.70;40.70;;;;;;5123766;27;19912;-54
2022/06/26 13:39:07;;;;;;;;;;;32.00;40.80;;;;;;5083183;28;19913;-55
2022/06/26 13:41:47;;;;;;;;;;;32.20;40.90;;;;;;5103727;27;19912;-54
2022/06/26 13:44:27;;;;;;;;;;;32.10;41.40;;;;;;5116364;27;19916;-54
2022/06/26 13:47:07;;;;;;;;;;;32.00;39.70;;;;;;5123737;27;20373;-55
2022/06/26 13:49:47;;;;;;;;;;;32.00;40.30;;;;;;5103809;27;19912;-54
2022/06/26 13:52:27;;;;;;;;;;;31.90;40.20;;;;;;5124773;27;19911;-54
2022/06/26 13:55:08;;;;;;;;;;;31.90;41.30;;;;;;5124303;27;19912;-54
2022/06/26 13:57:48;;;;;;;;;;;32.10;40.10;;;;;;5103337;27;19918;-54
2022/06/26 14:00:28;;;;;;;;;;;32.00;40.60;;;;;;5103684;27;19926;-55
2022/06/26 14:03:07;;;;;;;;;;;32.00;41.50;;;;;;5124625;27;19912;-55
2022/06/26 14:05:47;;;;;;;;;;;32.20;40.40;;;;;;5103696;27;19916;-54
2022/06/26 14:08:27;;;;;;;;;;;32.00;40.50;;;;;;5103440;27;20319;-53
2022/06/26 14:11:07;;;;;;;;;;;32.00;40.30;;;;;;5103830;27;19926;-54
2022/06/26 14:13:47;;;;;;;;;;;31.90;39.30;;;;;;5123801;27;19911;-54
2022/06/26 14:16:27;;;;;;;;;;;32.00;39.80;;;;;;5103197;27;20324;-54
2022/06/26 14:19:06;;;;;;;;;;;32.00;39.60;;;;;;5123920;27;19925;-54
2022/06/26 14:25:55;;;;;;;;;;;32.20;41.50;;;;;;5103540;27;19912;-54
2022/06/26 14:27:44;;;;;;;;;;;32.20;39.00;;;;;;5102839;27;19912;-54
2022/06/26 14:30:24;;;;;;;;;;;32.20;39.90;;;;;;5124155;27;19912;-55
2022/06/26 14:33:04;;;;;;;;;;;32.20;40.70;;;;;;5125177;27;19912;-54
2022/06/26 14:35:44;;;;;;;;;;;32.00;38.30;;;;;;5124427;27;19922;-55
2022/06/26 14:38:24;;;;;;;;;;;31.30;39.70;;;;;;5103932;27;20361;-55
2022/06/26 14:41:04;;;;;;;;;;;30.60;39.80;;;;;;5124258;27;20420;-55
2022/06/26 14:43:45;;;;;;;;;;;30.30;40.60;;;;;;5121426;27;20128;-54
2022/06/26 14:46:26;;;;;;;;;;;30.70;41.00;;;;;;5123850;27;19916;-55
2022/06/26 14:49:06;;;;;;;;;;;31.30;40.70;;;;;;5145139;27;19912;-54
2022/06/26 14:51:49;;;;;;;;;;;31.90;38.80;;;;;;5103703;27;19926;-54
2022/06/26 14:54:29;;;;;;;;;;;32.20;37.60;;;;;;5094882;27;19927;-54
2022/06/26 14:57:09;;;;;;;;;;;32.30;37.80;;;;;;5103111;27;20403;-54
2022/06/26 14:59:49;;;;;;;;;;;32.60;37.60;;;;;;5103019;27;19920;-55
2022/06/26 15:02:28;;;;;;;;;;;32.70;37.50;;;;;;5104409;27;19926;-54
2022/06/26 15:05:09;;;;;;;;;;;33.00;37.90;;;;;;5103448;27;19912;-54
2022/06/26 15:07:50;;;;;;;;;;;33.40;36.30;;;;;;5123206;27;19912;-54
2022/06/26 15:10:31;;;;;;;;;;;33.30;36.20;;;;;;5078196;28;19918;-55
2022/06/26 15:13:11;;;;;;;;;;;33.10;34.90;;;;;;5121466;27;19926;-55
2022/06/26 15:15:51;;;;;;;;;;;32.50;38.90;;;;;;5101414;27;19997;-54
2022/06/26 15:18:42;;;;;;;;;;;32.50;38.20;;;;;;5122581;27;20141;-55
2022/06/26 15:21:22;;;;;;;;;;;32.80;38.70;;;;;;5124126;27;19912;-55
2022/06/26 15:24:02;;;;;;;;;;;32.50;39.30;;;;;;5118605;27;20289;-54
2022/06/26 15:26:42;;;;;;;;;;;31.90;40.30;;;;;;5103146;27;19912;-54
2022/06/26 15:29:22;;;;;;;;;;;31.40;42.10;;;;;;5103247;27;19912;-55
2022/06/26 15:32:01;;;;;;;;;;;31.20;41.10;;;;;;5103562;27;19961;-54
2022/06/26 15:34:42;;;;;;;;;;;31.60;41.20;;;;;;5092131;27;20327;-54
2022/06/26 15:37:25;;;;;;;;;;;31.40;42.10;;;;;;5122982;27;19912;-55
2022/06/26 15:40:05;;;;;;;;;;;30.90;40.50;;;;;;5123721;27;20332;-54
2022/06/26 15:42:46;;;;;;;;;;;31.60;41.70;;;;;;5123527;27;19915;-54
2022/06/26 15:45:25;;;;;;;;;;;33.80;42.00;;;;;;5123705;27;19912;-55
2022/06/26 15:48:06;;;;;;;;;;;35.50;36.90;;;;;;5123751;27;20316;-55
2022/06/26 15:50:47;;;;;;;;;;;36.00;34.10;;;;;;5123973;27;19920;-55
2022/06/26 15:53:27;;;;;;;;;;;35.90;32.90;;;;;;5145283;27;19920;-55